sensor_id;sensor_type;location;lat;lon;timestamp;P1;durP1;ratioP1;P2;durP2;ratioP2
45564;SDS011;31280;40.408;17.282;2022-08-24T00:01:09;2.50;;;0.82;;
45564;SDS011;31280;40.408;17.282;2022-08-24T00:03:37;4.80;;;1.10;;
45564;SDS011;31280;40.408;17.282;2022-08-24T00:06:06;2.17;;;0.95;;
45564;SDS011;31280;40.408;17.282;2022-08-24T00:08:36;2.72;;;0.90;;
45564;SDS011;31280;40.408;17.282;2022-08-24T00:11:03;6.50;;;1.35;;
45564;SDS011;31280;40.408;17.282;2022-08-24T00:13:29;4.80;;;1.30;;
45564;SDS011;31280;40.408;17.282;2022-08-24T00:15:55;3.95;;;1.30;;
45564;SDS011;31280;40.408;17.282;2022-08-24T00:18:22;3.42;;;1.20;;
45564;SDS011;31280;40.408;17.282;2022-08-24T00:20:47;1.80;;;1.08;;
45564;SDS011;31280;40.408;17.282;2022-08-24T00:23:14;2.15;;;1.35;;
45564;SDS011;31280;40.408;17.282;2022-08-24T00:25:41;3.25;;;1.10;;
45564;SDS011;31280;40.408;17.282;2022-08-24T00:28:07;3.72;;;1.15;;
45564;SDS011;31280;40.408;17.282;2022-08-24T00:30:33;5.28;;;1.10;;
45564;SDS011;31280;40.408;17.282;2022-08-24T00:32:59;4.90;;;1.30;;
45564;SDS011;31280;40.408;17.282;2022-08-24T00:35:25;7.10;;;1.00;;
45564;SDS011;31280;40.408;17.282;2022-08-24T00:37:52;6.63;;;1.20;;
45564;SDS011;31280;40.408;17.282;2022-08-24T00:40:23;3.97;;;1.08;;
45564;SDS011;31280;40.408;17.282;2022-08-24T00:43:00;3.22;;;1.05;;
45564;SDS011;31280;40.408;17.282;2022-08-24T00:46:15;1.67;;;1.17;;
45564;SDS011;31280;40.408;17.282;2022-08-24T00:48:22;12.43;;;1.42;;
45564;SDS011;31280;40.408;17.282;2022-08-24T00:50:57;5.82;;;1.30;;
45564;SDS011;31280;40.408;17.282;2022-08-24T00:53:28;4.95;;;1.40;;
45564;SDS011;31280;40.408;17.282;2022-08-24T00:55:58;6.32;;;1.63;;
45564;SDS011;31280;40.408;17.282;2022-08-24T00:58:31;5.25;;;1.25;;
45564;SDS011;31280;40.408;17.282;2022-08-24T01:01:01;4.20;;;1.13;;
45564;SDS011;31280;40.408;17.282;2022-08-24T01:03:31;3.38;;;1.10;;
45564;SDS011;31280;40.408;17.282;2022-08-24T01:05:57;5.97;;;1.15;;
45564;SDS011;31280;40.408;17.282;2022-08-24T01:08:24;4.05;;;1.05;;
45564;SDS011;31280;40.408;17.282;2022-08-24T01:11:00;8.45;;;1.30;;
45564;SDS011;31280;40.408;17.282;2022-08-24T01:13:27;3.25;;;1.10;;
45564;SDS011;31280;40.408;17.282;2022-08-24T01:15:57;2.92;;;1.00;;
45564;SDS011;31280;40.408;17.282;2022-08-24T01:18:26;3.25;;;1.20;;
45564;SDS011;31280;40.408;17.282;2022-08-24T01:23:48;1.95;;;1.17;;
45564;SDS011;31280;40.408;17.282;2022-08-24T01:26:27;6.75;;;1.23;;
45564;SDS011;31280;40.408;17.282;2022-08-24T01:29:16;3.88;;;1.17;;
45564;SDS011;31280;40.408;17.282;2022-08-24T01:31:53;1.83;;;1.20;;
45564;SDS011;31280;40.408;17.282;2022-08-24T01:34:19;3.97;;;1.15;;
45564;SDS011;31280;40.408;17.282;2022-08-24T01:36:46;3.03;;;1.20;;
45564;SDS011;31280;40.408;17.282;2022-08-24T01:39:18;2.33;;;0.90;;
45564;SDS011;31280;40.408;17.282;2022-08-24T01:41:47;3.92;;;1.15;;
45564;SDS011;31280;40.408;17.282;2022-08-24T01:44:13;6.20;;;1.33;;
45564;SDS011;31280;40.408;17.282;2022-08-24T01:46:43;4.00;;;0.90;;
45564;SDS011;31280;40.408;17.282;2022-08-24T01:49:10;4.03;;;1.08;;
45564;SDS011;31280;40.408;17.282;2022-08-24T01:51:36;2.90;;;0.95;;
45564;SDS011;31280;40.408;17.282;2022-08-24T01:54:02;2.47;;;1.38;;
45564;SDS011;31280;40.408;17.282;2022-08-24T01:56:30;2.05;;;1.67;;
45564;SDS011;31280;40.408;17.282;2022-08-24T01:58:56;3.65;;;1.30;;
45564;SDS011;31280;40.408;17.282;2022-08-24T02:01:23;2.28;;;1.23;;
45564;SDS011;31280;40.408;17.282;2022-08-24T02:03:51;3.72;;;1.20;;
45564;SDS011;31280;40.408;17.282;2022-08-24T02:06:17;2.50;;;1.40;;
45564;SDS011;31280;40.408;17.282;2022-08-24T02:08:44;3.30;;;1.35;;
45564;SDS011;31280;40.408;17.282;2022-08-24T02:11:10;3.50;;;1.10;;
45564;SDS011;31280;40.408;17.282;2022-08-24T02:13:37;2.53;;;1.23;;
45564;SDS011;31280;40.408;17.282;2022-08-24T02:16:04;4.30;;;1.20;;
45564;SDS011;31280;40.408;17.282;2022-08-24T02:18:32;6.55;;;1.52;;
45564;SDS011;31280;40.408;17.282;2022-08-24T02:20:59;3.42;;;1.30;;
45564;SDS011;31280;40.408;17.282;2022-08-24T02:23:25;6.47;;;1.25;;
45564;SDS011;31280;40.408;17.282;2022-08-24T02:25:53;3.25;;;1.20;;
45564;SDS011;31280;40.408;17.282;2022-08-24T02:28:20;3.47;;;1.25;;
45564;SDS011;31280;40.408;17.282;2022-08-24T02:30:47;1.73;;;1.00;;
45564;SDS011;31280;40.408;17.282;2022-08-24T02:33:13;2.67;;;1.08;;
45564;SDS011;31280;40.408;17.282;2022-08-24T02:35:39;1.17;;;0.90;;
45564;SDS011;31280;40.408;17.282;2022-08-24T02:38:06;1.85;;;0.90;;
45564;SDS011;31280;40.408;17.282;2022-08-24T02:40:34;4.80;;;1.50;;
45564;SDS011;31280;40.408;17.282;2022-08-24T02:43:00;2.45;;;0.90;;
45564;SDS011;31280;40.408;17.282;2022-08-24T02:45:26;4.00;;;1.05;;
45564;SDS011;31280;40.408;17.282;2022-08-24T02:47:52;2.50;;;1.00;;
45564;SDS011;31280;40.408;17.282;2022-08-24T02:50:18;2.67;;;1.10;;
45564;SDS011;31280;40.408;17.282;2022-08-24T02:52:44;2.35;;;1.23;;
45564;SDS011;31280;40.408;17.282;2022-08-24T02:55:12;2.17;;;1.10;;
45564;SDS011;31280;40.408;17.282;2022-08-24T02:57:40;3.10;;;1.10;;
45564;SDS011;31280;40.408;17.282;2022-08-24T03:00:07;2.47;;;1.50;;
45564;SDS011;31280;40.408;17.282;2022-08-24T03:02:35;2.65;;;1.00;;
45564;SDS011;31280;40.408;17.282;2022-08-24T03:05:01;5.63;;;0.88;;
45564;SDS011;31280;40.408;17.282;2022-08-24T03:07:28;1.70;;;1.00;;
45564;SDS011;31280;40.408;17.282;2022-08-24T03:09:53;3.28;;;1.00;;
45564;SDS011;31280;40.408;17.282;2022-08-24T03:12:19;3.70;;;1.05;;
45564;SDS011;31280;40.408;17.282;2022-08-24T03:14:45;4.55;;;1.10;;
45564;SDS011;31280;40.408;17.282;2022-08-24T03:17:11;3.00;;;1.42;;
45564;SDS011;31280;40.408;17.282;2022-08-24T03:19:37;1.80;;;0.93;;
45564;SDS011;31280;40.408;17.282;2022-08-24T03:22:03;3.15;;;1.50;;
45564;SDS011;31280;40.408;17.282;2022-08-24T03:24:29;4.75;;;1.10;;
45564;SDS011;31280;40.408;17.282;2022-08-24T03:26:54;3.35;;;1.13;;
45564;SDS011;31280;40.408;17.282;2022-08-24T03:29:20;3.95;;;1.20;;
45564;SDS011;31280;40.408;17.282;2022-08-24T03:31:46;4.05;;;0.90;;
45564;SDS011;31280;40.408;17.282;2022-08-24T03:34:12;1.88;;;0.90;;
45564;SDS011;31280;40.408;17.282;2022-08-24T03:36:42;3.55;;;1.05;;
45564;SDS011;31280;40.408;17.282;2022-08-24T03:39:11;2.28;;;1.02;;
45564;SDS011;31280;40.408;17.282;2022-08-24T03:41:38;2.05;;;1.00;;
45564;SDS011;31280;40.408;17.282;2022-08-24T03:44:05;1.55;;;0.90;;
45564;SDS011;31280;40.408;17.282;2022-08-24T03:46:33;3.75;;;0.90;;
45564;SDS011;31280;40.408;17.282;2022-08-24T03:49:01;4.28;;;0.88;;
45564;SDS011;31280;40.408;17.282;2022-08-24T03:51:29;2.13;;;1.00;;
45564;SDS011;31280;40.408;17.282;2022-08-24T03:53:55;4.72;;;1.05;;
45564;SDS011;31280;40.408;17.282;2022-08-24T03:56:23;6.70;;;1.65;;
45564;SDS011;31280;40.408;17.282;2022-08-24T03:58:49;2.53;;;1.10;;
45564;SDS011;31280;40.408;17.282;2022-08-24T04:01:17;5.00;;;1.08;;
45564;SDS011;31280;40.408;17.282;2022-08-24T04:03:44;2.58;;;1.02;;
45564;SDS011;31280;40.408;17.282;2022-08-24T04:06:11;2.65;;;1.00;;
45564;SDS011;31280;40.408;17.282;2022-08-24T04:08:38;1.77;;;1.00;;
45564;SDS011;31280;40.408;17.282;2022-08-24T04:11:08;4.35;;;1.00;;
45564;SDS011;31280;40.408;17.282;2022-08-24T04:13:35;3.20;;;1.30;;
45564;SDS011;31280;40.408;17.282;2022-08-24T04:16:05;2.97;;;1.35;;
45564;SDS011;31280;40.408;17.282;2022-08-24T04:18:38;4.20;;;0.98;;
45564;SDS011;31280;40.408;17.282;2022-08-24T04:21:05;2.58;;;1.13;;
45564;SDS011;31280;40.408;17.282;2022-08-24T04:23:32;3.50;;;1.10;;
45564;SDS011;31280;40.408;17.282;2022-08-24T04:26:02;3.40;;;1.10;;
45564;SDS011;31280;40.408;17.282;2022-08-24T04:28:29;5.03;;;1.30;;
45564;SDS011;31280;40.408;17.282;2022-08-24T04:30:56;6.88;;;1.33;;
45564;SDS011;31280;40.408;17.282;2022-08-24T04:33:22;3.42;;;0.90;;
45564;SDS011;31280;40.408;17.282;2022-08-24T04:35:48;1.77;;;1.00;;
45564;SDS011;31280;40.408;17.282;2022-08-24T04:38:15;3.05;;;1.27;;
45564;SDS011;31280;40.408;17.282;2022-08-24T04:40:43;4.20;;;1.10;;
45564;SDS011;31280;40.408;17.282;2022-08-24T04:43:11;2.05;;;1.15;;
45564;SDS011;31280;40.408;17.282;2022-08-24T04:45:43;3.40;;;1.23;;
45564;SDS011;31280;40.408;17.282;2022-08-24T04:48:11;2.60;;;1.02;;
45564;SDS011;31280;40.408;17.282;2022-08-24T04:50:38;5.43;;;1.20;;
45564;SDS011;31280;40.408;17.282;2022-08-24T04:53:05;2.90;;;1.17;;
45564;SDS011;31280;40.408;17.282;2022-08-24T04:55:33;3.10;;;1.15;;
45564;SDS011;31280;40.408;17.282;2022-08-24T04:58:06;5.68;;;1.52;;
45564;SDS011;31280;40.408;17.282;2022-08-24T05:00:31;4.93;;;1.13;;
45564;SDS011;31280;40.408;17.282;2022-08-24T05:02:57;3.65;;;1.13;;
45564;SDS011;31280;40.408;17.282;2022-08-24T05:05:23;1.85;;;1.08;;
45564;SDS011;31280;40.408;17.282;2022-08-24T05:07:49;1.50;;;0.90;;
45564;SDS011;31280;40.408;17.282;2022-08-24T05:10:15;4.03;;;1.10;;
45564;SDS011;31280;40.408;17.282;2022-08-24T05:12:41;4.97;;;1.23;;
45564;SDS011;31280;40.408;17.282;2022-08-24T05:15:08;4.22;;;1.40;;
45564;SDS011;31280;40.408;17.282;2022-08-24T05:17:34;2.70;;;1.10;;
45564;SDS011;31280;40.408;17.282;2022-08-24T05:20:00;2.05;;;0.93;;
45564;SDS011;31280;40.408;17.282;2022-08-24T05:22:26;6.28;;;1.00;;
45564;SDS011;31280;40.408;17.282;2022-08-24T05:24:52;4.38;;;1.63;;
45564;SDS011;31280;40.408;17.282;2022-08-24T05:27:18;3.63;;;1.48;;
45564;SDS011;31280;40.408;17.282;2022-08-24T05:29:44;1.45;;;1.02;;
45564;SDS011;31280;40.408;17.282;2022-08-24T05:32:10;3.15;;;1.10;;
45564;SDS011;31280;40.408;17.282;2022-08-24T05:34:36;3.28;;;1.20;;
45564;SDS011;31280;40.408;17.282;2022-08-24T05:37:02;2.08;;;1.00;;
45564;SDS011;31280;40.408;17.282;2022-08-24T05:39:29;4.57;;;1.20;;
45564;SDS011;31280;40.408;17.282;2022-08-24T05:41:55;3.97;;;1.25;;
45564;SDS011;31280;40.408;17.282;2022-08-24T05:44:24;3.17;;;1.27;;
45564;SDS011;31280;40.408;17.282;2022-08-24T05:46:51;4.78;;;1.20;;
45564;SDS011;31280;40.408;17.282;2022-08-24T05:49:18;1.48;;;0.95;;
45564;SDS011;31280;40.408;17.282;2022-08-24T05:51:44;2.95;;;1.08;;
45564;SDS011;31280;40.408;17.282;2022-08-24T05:54:10;4.07;;;1.00;;
45564;SDS011;31280;40.408;17.282;2022-08-24T05:56:38;3.78;;;1.65;;
45564;SDS011;31280;40.408;17.282;2022-08-24T05:59:04;2.70;;;1.10;;
45564;SDS011;31280;40.408;17.282;2022-08-24T06:01:29;2.30;;;0.90;;
45564;SDS011;31280;40.408;17.282;2022-08-24T06:03:57;4.78;;;1.00;;
45564;SDS011;31280;40.408;17.282;2022-08-24T06:06:24;4.18;;;2.10;;
45564;SDS011;31280;40.408;17.282;2022-08-24T06:08:52;3.55;;;1.00;;
45564;SDS011;31280;40.408;17.282;2022-08-24T06:13:50;4.10;;;1.00;;
45564;SDS011;31280;40.408;17.282;2022-08-24T06:16:20;1.20;;;1.00;;
45564;SDS011;31280;40.408;17.282;2022-08-24T06:18:46;3.72;;;1.10;;
45564;SDS011;31280;40.408;17.282;2022-08-24T06:21:15;2.95;;;0.98;;
45564;SDS011;31280;40.408;17.282;2022-08-24T06:23:42;3.13;;;1.13;;
45564;SDS011;31280;40.408;17.282;2022-08-24T06:26:09;3.85;;;1.20;;
45564;SDS011;31280;40.408;17.282;2022-08-24T06:28:55;3.97;;;1.00;;
45564;SDS011;31280;40.408;17.282;2022-08-24T06:31:21;2.88;;;1.10;;
45564;SDS011;31280;40.408;17.282;2022-08-24T06:33:48;3.63;;;1.60;;
45564;SDS011;31280;40.408;17.282;2022-08-24T06:36:15;3.58;;;1.73;;
45564;SDS011;31280;40.408;17.282;2022-08-24T06:38:41;4.70;;;1.38;;
45564;SDS011;31280;40.408;17.282;2022-08-24T06:41:08;1.75;;;1.20;;
45564;SDS011;31280;40.408;17.282;2022-08-24T06:43:34;2.75;;;0.90;;
45564;SDS011;31280;40.408;17.282;2022-08-24T06:46:01;4.20;;;1.20;;
45564;SDS011;31280;40.408;17.282;2022-08-24T06:48:28;3.13;;;1.38;;
45564;SDS011;31280;40.408;17.282;2022-08-24T06:50:55;8.70;;;1.73;;
45564;SDS011;31280;40.408;17.282;2022-08-24T06:53:21;8.30;;;1.90;;
45564;SDS011;31280;40.408;17.282;2022-08-24T06:55:48;6.57;;;1.27;;
45564;SDS011;31280;40.408;17.282;2022-08-24T06:58:16;4.40;;;1.45;;
45564;SDS011;31280;40.408;17.282;2022-08-24T07:00:43;2.50;;;1.15;;
45564;SDS011;31280;40.408;17.282;2022-08-24T07:03:09;6.72;;;1.30;;
45564;SDS011;31280;40.408;17.282;2022-08-24T07:05:36;7.35;;;1.30;;
45564;SDS011;31280;40.408;17.282;2022-08-24T07:08:02;4.63;;;1.40;;
45564;SDS011;31280;40.408;17.282;2022-08-24T07:10:29;4.88;;;1.50;;
45564;SDS011;31280;40.408;17.282;2022-08-24T07:12:55;3.75;;;1.50;;
45564;SDS011;31280;40.408;17.282;2022-08-24T07:15:22;4.45;;;1.63;;
45564;SDS011;31280;40.408;17.282;2022-08-24T07:17:48;4.35;;;1.33;;
45564;SDS011;31280;40.408;17.282;2022-08-24T07:20:14;4.18;;;1.55;;
45564;SDS011;31280;40.408;17.282;2022-08-24T07:22:42;7.70;;;1.60;;
45564;SDS011;31280;40.408;17.282;2022-08-24T07:25:09;7.80;;;1.73;;
45564;SDS011;31280;40.408;17.282;2022-08-24T07:27:36;5.38;;;1.52;;
45564;SDS011;31280;40.408;17.282;2022-08-24T07:30:03;6.38;;;1.63;;
45564;SDS011;31280;40.408;17.282;2022-08-24T07:32:29;8.30;;;2.20;;
45564;SDS011;31280;40.408;17.282;2022-08-24T07:34:55;7.70;;;2.33;;
45564;SDS011;31280;40.408;17.282;2022-08-24T07:37:21;8.77;;;2.63;;
45564;SDS011;31280;40.408;17.282;2022-08-24T07:39:47;5.65;;;2.50;;
45564;SDS011;31280;40.408;17.282;2022-08-24T07:42:13;11.15;;;3.70;;
45564;SDS011;31280;40.408;17.282;2022-08-24T07:44:39;8.25;;;3.88;;
45564;SDS011;31280;40.408;17.282;2022-08-24T07:47:05;10.35;;;4.03;;
45564;SDS011;31280;40.408;17.282;2022-08-24T07:49:30;9.05;;;4.50;;
45564;SDS011;31280;40.408;17.282;2022-08-24T07:51:57;6.25;;;4.30;;
45564;SDS011;31280;40.408;17.282;2022-08-24T07:54:23;7.90;;;3.78;;
45564;SDS011;31280;40.408;17.282;2022-08-24T07:56:49;10.00;;;3.90;;
45564;SDS011;31280;40.408;17.282;2022-08-24T07:59:15;7.55;;;4.55;;
45564;SDS011;31280;40.408;17.282;2022-08-24T08:01:41;8.45;;;4.53;;
45564;SDS011;31280;40.408;17.282;2022-08-24T08:04:07;10.25;;;4.25;;
45564;SDS011;31280;40.408;17.282;2022-08-24T08:06:34;7.72;;;3.63;;
45564;SDS011;31280;40.408;17.282;2022-08-24T08:09:00;5.10;;;3.30;;
45564;SDS011;31280;40.408;17.282;2022-08-24T08:11:29;6.93;;;3.88;;
45564;SDS011;31280;40.408;17.282;2022-08-24T08:13:55;7.43;;;3.67;;
45564;SDS011;31280;40.408;17.282;2022-08-24T08:16:21;6.10;;;3.40;;
45564;SDS011;31280;40.408;17.282;2022-08-24T08:18:47;9.70;;;3.20;;
45564;SDS011;31280;40.408;17.282;2022-08-24T08:21:13;4.50;;;2.90;;
45564;SDS011;31280;40.408;17.282;2022-08-24T08:23:58;10.02;;;3.67;;
45564;SDS011;31280;40.408;17.282;2022-08-24T08:26:43;7.72;;;3.90;;
45564;SDS011;31280;40.408;17.282;2022-08-24T08:29:10;4.85;;;3.72;;
45564;SDS011;31280;40.408;17.282;2022-08-24T08:31:38;5.95;;;3.83;;
45564;SDS011;31280;40.408;17.282;2022-08-24T08:34:04;4.50;;;2.97;;
45564;SDS011;31280;40.408;17.282;2022-08-24T08:36:31;8.25;;;3.67;;
45564;SDS011;31280;40.408;17.282;2022-08-24T08:38:58;5.72;;;3.50;;
45564;SDS011;31280;40.408;17.282;2022-08-24T08:47:09;7.07;;;3.20;;
45564;SDS011;31280;40.408;17.282;2022-08-24T08:50:03;5.60;;;3.10;;
45564;SDS011;31280;40.408;17.282;2022-08-24T08:55:20;4.75;;;3.10;;
45564;SDS011;31280;40.408;17.282;2022-08-24T09:00:46;4.22;;;2.90;;
45564;SDS011;31280;40.408;17.282;2022-08-24T09:03:31;6.93;;;3.30;;
45564;SDS011;31280;40.408;17.282;2022-08-24T09:06:34;4.70;;;2.90;;
45564;SDS011;31280;40.408;17.282;2022-08-24T09:19:27;4.78;;;2.67;;
45564;SDS011;31280;40.408;17.282;2022-08-24T09:27:07;5.20;;;2.50;;
45564;SDS011;31280;40.408;17.282;2022-08-24T09:40:33;3.60;;;2.72;;
45564;SDS011;31280;40.408;17.282;2022-08-24T09:48:37;8.68;;;3.20;;
45564;SDS011;31280;40.408;17.282;2022-08-24T09:59:54;5.80;;;2.67;;
45564;SDS011;31280;40.408;17.282;2022-08-24T10:07:53;8.30;;;3.20;;
45564;SDS011;31280;40.408;17.282;2022-08-24T10:10:27;4.82;;;2.83;;
45564;SDS011;31280;40.408;17.282;2022-08-24T10:15:50;4.18;;;2.80;;
45564;SDS011;31280;40.408;17.282;2022-08-24T10:18:53;4.30;;;2.90;;
45564;SDS011;31280;40.408;17.282;2022-08-24T10:33:26;5.80;;;2.35;;
45564;SDS011;31280;40.408;17.282;2022-08-24T10:44:36;4.32;;;2.70;;
45564;SDS011;31280;40.408;17.282;2022-08-24T10:47:23;3.60;;;2.47;;
45564;SDS011;31280;40.408;17.282;2022-08-24T10:52:49;2.20;;;2.00;;
45564;SDS011;31280;40.408;17.282;2022-08-24T10:55:23;3.00;;;2.38;;
45564;SDS011;31280;40.408;17.282;2022-08-24T11:01:00;5.70;;;2.50;;
45564;SDS011;31280;40.408;17.282;2022-08-24T11:03:52;3.80;;;2.35;;
45564;SDS011;31280;40.408;17.282;2022-08-24T11:06:34;4.75;;;2.70;;
45564;SDS011;31280;40.408;17.282;2022-08-24T11:09:05;5.60;;;2.55;;
45564;SDS011;31280;40.408;17.282;2022-08-24T11:11:33;4.60;;;3.28;;
45564;SDS011;31280;40.408;17.282;2022-08-24T11:14:02;3.30;;;2.30;;
45564;SDS011;31280;40.408;17.282;2022-08-24T11:19:12;4.63;;;2.08;;
45564;SDS011;31280;40.408;17.282;2022-08-24T11:21:44;2.50;;;2.30;;
45564;SDS011;31280;40.408;17.282;2022-08-24T11:24:24;6.10;;;2.88;;
45564;SDS011;31280;40.408;17.282;2022-08-24T11:27:04;3.83;;;2.50;;
45564;SDS011;31280;40.408;17.282;2022-08-24T11:29:56;3.50;;;2.40;;
45564;SDS011;31280;40.408;17.282;2022-08-24T11:32:39;3.67;;;1.95;;
45564;SDS011;31280;40.408;17.282;2022-08-24T11:37:53;5.82;;;2.38;;
45564;SDS011;31280;40.408;17.282;2022-08-24T11:40:24;3.53;;;1.92;;
45564;SDS011;31280;40.408;17.282;2022-08-24T11:45:36;4.10;;;1.88;;
45564;SDS011;31280;40.408;17.282;2022-08-24T11:48:35;2.67;;;1.90;;
45564;SDS011;31280;40.408;17.282;2022-08-24T11:51:25;3.35;;;2.28;;
45564;SDS011;31280;40.408;17.282;2022-08-24T11:54:02;7.97;;;2.42;;
45564;SDS011;31280;40.408;17.282;2022-08-24T12:02:16;3.17;;;2.25;;
45564;SDS011;31280;40.408;17.282;2022-08-24T12:04:54;2.40;;;2.20;;
45564;SDS011;31280;40.408;17.282;2022-08-24T12:12:39;3.03;;;2.45;;
45564;SDS011;31280;40.408;17.282;2022-08-24T12:17:44;3.97;;;2.83;;
45564;SDS011;31280;40.408;17.282;2022-08-24T12:22:47;4.60;;;2.58;;
45564;SDS011;31280;40.408;17.282;2022-08-24T12:25:15;3.38;;;2.78;;
45564;SDS011;31280;40.408;17.282;2022-08-24T12:28:01;3.38;;;2.50;;
45564;SDS011;31280;40.408;17.282;2022-08-24T12:30:29;3.30;;;2.28;;
45564;SDS011;31280;40.408;17.282;2022-08-24T12:32:59;3.92;;;2.42;;
45564;SDS011;31280;40.408;17.282;2022-08-24T12:35:33;4.15;;;2.50;;
45564;SDS011;31280;40.408;17.282;2022-08-24T12:40:59;4.20;;;2.53;;
45564;SDS011;31280;40.408;17.282;2022-08-24T12:43:33;2.72;;;2.28;;
45564;SDS011;31280;40.408;17.282;2022-08-24T12:46:04;2.95;;;2.40;;
45564;SDS011;31280;40.408;17.282;2022-08-24T13:10:03;2.85;;;2.50;;
45564;SDS011;31280;40.408;17.282;2022-08-24T13:17:44;3.42;;;2.70;;
45564;SDS011;31280;40.408;17.282;2022-08-24T13:20:31;4.95;;;2.95;;
45564;SDS011;31280;40.408;17.282;2022-08-24T13:23:18;4.70;;;3.00;;
45564;SDS011;31280;40.408;17.282;2022-08-24T13:25:57;4.00;;;2.95;;
45564;SDS011;31280;40.408;17.282;2022-08-24T13:28:43;3.72;;;3.13;;
45564;SDS011;31280;40.408;17.282;2022-08-24T13:31:18;7.82;;;3.20;;
45564;SDS011;31280;40.408;17.282;2022-08-24T13:55:47;3.88;;;3.30;;
45564;SDS011;31280;40.408;17.282;2022-08-24T14:01:02;7.68;;;3.65;;
45564;SDS011;31280;40.408;17.282;2022-08-24T14:03:55;3.65;;;3.17;;
45564;SDS011;31280;40.408;17.282;2022-08-24T14:31:41;3.40;;;3.10;;
45564;SDS011;31280;40.408;17.282;2022-08-24T14:34:57;3.28;;;2.80;;
45564;SDS011;31280;40.408;17.282;2022-08-24T14:38:00;3.10;;;2.80;;
45564;SDS011;31280;40.408;17.282;2022-08-24T14:40:32;11.00;;;2.60;;
45564;SDS011;31280;40.408;17.282;2022-08-24T14:45:43;3.22;;;2.60;;
45564;SDS011;31280;40.408;17.282;2022-08-24T14:48:52;6.70;;;2.72;;
45564;SDS011;31280;40.408;17.282;2022-08-24T14:54:15;3.72;;;2.63;;
45564;SDS011;31280;40.408;17.282;2022-08-24T15:07:52;3.42;;;2.85;;
45564;SDS011;31280;40.408;17.282;2022-08-24T15:10:23;3.25;;;2.92;;
45564;SDS011;31280;40.408;17.282;2022-08-24T15:13:03;5.10;;;2.92;;
45564;SDS011;31280;40.408;17.282;2022-08-24T15:15:36;6.18;;;2.55;;
45564;SDS011;31280;40.408;17.282;2022-08-24T15:23:58;2.72;;;2.47;;
45564;SDS011;31280;40.408;17.282;2022-08-24T15:26:49;2.92;;;2.60;;
45564;SDS011;31280;40.408;17.282;2022-08-24T15:29:20;6.53;;;2.70;;
45564;SDS011;31280;40.408;17.282;2022-08-24T15:37:07;3.70;;;3.00;;
45564;SDS011;31280;40.408;17.282;2022-08-24T15:39:34;5.38;;;3.05;;
45564;SDS011;31280;40.408;17.282;2022-08-24T15:42:06;6.20;;;3.40;;
45564;SDS011;31280;40.408;17.282;2022-08-24T15:44:38;11.30;;;5.07;;
45564;SDS011;31280;40.408;17.282;2022-08-24T15:47:23;5.22;;;4.10;;
45564;SDS011;31280;40.408;17.282;2022-08-24T15:49:56;8.43;;;4.10;;
45564;SDS011;31280;40.408;17.282;2022-08-24T15:55:03;8.80;;;4.32;;
45564;SDS011;31280;40.408;17.282;2022-08-24T15:57:38;6.70;;;3.90;;
45564;SDS011;31280;40.408;17.282;2022-08-24T16:00:13;6.40;;;4.15;;
45564;SDS011;31280;40.408;17.282;2022-08-24T16:09:05;6.95;;;4.85;;
45564;SDS011;31280;40.408;17.282;2022-08-24T16:16:59;8.70;;;5.07;;
45564;SDS011;31280;40.408;17.282;2022-08-24T16:22:13;7.80;;;5.50;;
45564;SDS011;31280;40.408;17.282;2022-08-24T16:25:06;8.20;;;5.20;;
45564;SDS011;31280;40.408;17.282;2022-08-24T16:33:08;8.15;;;6.35;;
45564;SDS011;31280;40.408;17.282;2022-08-24T16:35:35;11.38;;;6.07;;
45564;SDS011;31280;40.408;17.282;2022-08-24T16:38:01;8.05;;;6.30;;
45564;SDS011;31280;40.408;17.282;2022-08-24T16:40:28;10.35;;;6.03;;
45564;SDS011;31280;40.408;17.282;2022-08-24T16:42:57;8.02;;;5.50;;
45564;SDS011;31280;40.408;17.282;2022-08-24T16:45:23;12.77;;;6.93;;
45564;SDS011;31280;40.408;17.282;2022-08-24T16:47:49;8.23;;;5.95;;
45564;SDS011;31280;40.408;17.282;2022-08-24T16:50:16;11.50;;;6.40;;
45564;SDS011;31280;40.408;17.282;2022-08-24T16:52:45;11.07;;;5.97;;
45564;SDS011;31280;40.408;17.282;2022-08-24T16:55:10;9.07;;;6.22;;
45564;SDS011;31280;40.408;17.282;2022-08-24T16:57:37;12.35;;;6.38;;
45564;SDS011;31280;40.408;17.282;2022-08-24T17:00:05;9.07;;;6.00;;
45564;SDS011;31280;40.408;17.282;2022-08-24T17:02:33;8.52;;;5.68;;
45564;SDS011;31280;40.408;17.282;2022-08-24T17:04:58;12.18;;;6.40;;
45564;SDS011;31280;40.408;17.282;2022-08-24T17:07:26;11.73;;;6.22;;
45564;SDS011;31280;40.408;17.282;2022-08-24T17:09:53;11.52;;;6.10;;
45564;SDS011;31280;40.408;17.282;2022-08-24T17:12:20;8.70;;;5.85;;
45564;SDS011;31280;40.408;17.282;2022-08-24T17:14:46;10.57;;;5.45;;
45564;SDS011;31280;40.408;17.282;2022-08-24T17:17:13;10.85;;;5.97;;
45564;SDS011;31280;40.408;17.282;2022-08-24T17:19:42;9.25;;;5.55;;
45564;SDS011;31280;40.408;17.282;2022-08-24T17:22:08;8.80;;;5.35;;
45564;SDS011;31280;40.408;17.282;2022-08-24T17:24:35;9.43;;;5.65;;
45564;SDS011;31280;40.408;17.282;2022-08-24T17:27:01;7.05;;;5.28;;
45564;SDS011;31280;40.408;17.282;2022-08-24T17:29:27;7.57;;;5.22;;
45564;SDS011;31280;40.408;17.282;2022-08-24T17:31:53;8.52;;;6.20;;
45564;SDS011;31280;40.408;17.282;2022-08-24T17:34:20;9.77;;;5.97;;
45564;SDS011;31280;40.408;17.282;2022-08-24T17:36:51;9.35;;;6.00;;
45564;SDS011;31280;40.408;17.282;2022-08-24T17:39:19;9.50;;;5.90;;
45564;SDS011;31280;40.408;17.282;2022-08-24T17:41:49;10.30;;;6.30;;
45564;SDS011;31280;40.408;17.282;2022-08-24T17:44:20;9.07;;;6.05;;
45564;SDS011;31280;40.408;17.282;2022-08-24T17:46:49;10.57;;;6.38;;
45564;SDS011;31280;40.408;17.282;2022-08-24T17:49:16;9.60;;;5.90;;
45564;SDS011;31280;40.408;17.282;2022-08-24T17:51:43;11.30;;;5.75;;
45564;SDS011;31280;40.408;17.282;2022-08-24T17:54:09;9.05;;;6.00;;
45564;SDS011;31280;40.408;17.282;2022-08-24T17:56:34;9.10;;;6.13;;
45564;SDS011;31280;40.408;17.282;2022-08-24T17:59:09;9.45;;;6.15;;
45564;SDS011;31280;40.408;17.282;2022-08-24T18:01:49;9.68;;;6.50;;
45564;SDS011;31280;40.408;17.282;2022-08-24T18:04:17;10.13;;;6.15;;
45564;SDS011;31280;40.408;17.282;2022-08-24T18:06:45;9.35;;;6.18;;
45564;SDS011;31280;40.408;17.282;2022-08-24T18:09:32;12.68;;;6.65;;
45564;SDS011;31280;40.408;17.282;2022-08-24T18:11:58;12.25;;;6.78;;
45564;SDS011;31280;40.408;17.282;2022-08-24T18:14:25;8.88;;;6.20;;
45564;SDS011;31280;40.408;17.282;2022-08-24T18:16:52;10.10;;;6.80;;
45564;SDS011;31280;40.408;17.282;2022-08-24T18:19:19;14.80;;;7.78;;
45564;SDS011;31280;40.408;17.282;2022-08-24T18:21:45;10.05;;;6.53;;
45564;SDS011;31280;40.408;17.282;2022-08-24T18:24:11;10.73;;;6.88;;
45564;SDS011;31280;40.408;17.282;2022-08-24T18:26:37;12.60;;;6.95;;
45564;SDS011;31280;40.408;17.282;2022-08-24T18:29:07;12.38;;;6.40;;
45564;SDS011;31280;40.408;17.282;2022-08-24T18:31:37;10.18;;;6.28;;
45564;SDS011;31280;40.408;17.282;2022-08-24T18:34:04;12.18;;;7.65;;
45564;SDS011;31280;40.408;17.282;2022-08-24T18:36:30;9.60;;;6.40;;
45564;SDS011;31280;40.408;17.282;2022-08-24T18:38:56;11.32;;;6.95;;
45564;SDS011;31280;40.408;17.282;2022-08-24T18:41:23;10.63;;;6.18;;
45564;SDS011;31280;40.408;17.282;2022-08-24T18:43:53;15.27;;;7.57;;
45564;SDS011;31280;40.408;17.282;2022-08-24T18:46:19;13.23;;;7.32;;
45564;SDS011;31280;40.408;17.282;2022-08-24T18:48:46;11.48;;;5.88;;
45564;SDS011;31280;40.408;17.282;2022-08-24T18:51:12;13.43;;;6.53;;
45564;SDS011;31280;40.408;17.282;2022-08-24T18:53:39;10.43;;;6.32;;
45564;SDS011;31280;40.408;17.282;2022-08-24T18:56:05;9.38;;;6.63;;